createdAt,value
2023-01-17T00:00:28.236Z,97628.05
2023-01-17T00:03:15.293Z,97629.62
2023-01-17T00:06:01.136Z,97629.83
2023-01-17T00:08:46.885Z,97618.89
2023-01-17T00:11:14.020Z,97613.70
2023-01-17T00:13:41.376Z,97609.55
2023-01-17T00:16:08.551Z,97602.45
2023-01-17T00:18:35.784Z,97596.19
2023-01-17T00:21:21.953Z,97590.39
2023-01-17T00:24:07.458Z,97578.52
2023-01-17T00:26:34.734Z,97577.86
2023-01-17T00:29:02.197Z,97575.98
2023-01-17T00:31:29.332Z,97570.14
2023-01-17T00:33:56.442Z,97563.36
2023-01-17T00:36:23.543Z,97563.27
2023-01-17T00:38:50.615Z,97562.41
2023-01-17T00:41:17.818Z,97559.00
2023-01-17T00:44:03.390Z,97558.02
2023-01-17T00:46:49.308Z,97554.86
2023-01-17T00:49:35.418Z,97553.10
2023-01-17T00:52:21.402Z,97545.61
2023-01-17T00:55:07.429Z,97548.95
2023-01-17T00:57:53.471Z,97544.85
2023-01-17T01:00:39.637Z,97538.43
2023-01-17T01:03:28.240Z,97541.38
2023-01-17T01:06:14.418Z,97534.64
2023-01-17T01:09:00.304Z,97530.85
2023-01-17T01:11:46.517Z,97526.98
2023-01-17T01:14:32.630Z,97526.65
2023-01-17T01:17:18.155Z,97522.99
2023-01-17T01:20:04.039Z,97515.70
2023-01-17T01:22:50.089Z,97506.86
2023-01-17T01:25:35.847Z,97498.64
2023-01-17T01:28:29.355Z,97490.52
2023-01-17T01:31:15.192Z,97487.63
2023-01-17T01:33:42.329Z,97485.11
2023-01-17T01:36:09.861Z,97479.91
2023-01-17T01:38:37.089Z,97476.98
2023-01-17T01:41:05.092Z,97471.70
2023-01-17T01:43:44.625Z,97469.98
2023-01-17T01:46:16.386Z,97468.30
2023-01-17T01:49:05.504Z,97463.97
2023-01-17T01:51:41.126Z,97466.61
2023-01-17T01:54:12.089Z,97458.05
2023-01-17T01:56:39.939Z,97461.49
2023-01-17T01:59:11.393Z,97463.23
2023-01-17T02:01:38.741Z,97463.50
2023-01-17T02:04:10.120Z,97458.58
2023-01-17T02:07:06.820Z,97464.33
2023-01-17T02:09:34.605Z,97462.61
2023-01-17T02:12:03.345Z,97466.30
2023-01-17T02:14:30.848Z,97462.24
2023-01-17T02:17:06.188Z,97461.98
2023-01-17T02:19:55.502Z,97459.04
2023-01-17T02:22:47.847Z,97451.81
2023-01-17T02:25:24.346Z,97444.46
2023-01-17T02:28:11.798Z,97444.48
2023-01-17T02:30:48.547Z,97437.39
2023-01-17T02:33:43.554Z,97430.77
2023-01-17T02:36:13.681Z,97419.79
2023-01-17T02:38:52.494Z,97415.70
2023-01-17T02:41:25.073Z,97414.75
2023-01-17T02:43:53.896Z,97418.09
2023-01-17T02:46:21.318Z,97414.94
2023-01-17T02:48:49.530Z,97411.52
2023-01-17T02:51:44.630Z,97416.13
2023-01-17T02:54:38.140Z,97413.47
2023-01-17T02:57:26.877Z,97406.05
2023-01-17T03:00:04.215Z,97397.68
2023-01-17T03:03:13.836Z,97392.25
2023-01-17T03:05:50.485Z,97390.67
2023-01-17T03:08:18.944Z,97393.73
2023-01-17T03:10:46.700Z,97394.06
2023-01-17T03:13:14.010Z,97389.00
2023-01-17T03:15:41.520Z,97387.39
2023-01-17T03:18:13.667Z,97385.20
2023-01-17T03:20:41.400Z,97381.19
2023-01-17T03:23:08.866Z,97376.22
2023-01-17T03:25:36.119Z,97352.43
2023-01-17T03:28:04.045Z,97342.98
2023-01-17T03:30:31.469Z,97342.31
2023-01-17T03:32:58.694Z,97354.98
2023-01-17T03:35:25.944Z,97366.47
2023-01-17T03:37:53.068Z,97362.89
2023-01-17T03:40:20.294Z,97366.83
2023-01-17T03:42:47.524Z,97373.73
2023-01-17T03:45:14.902Z,97375.10
2023-01-17T03:47:42.083Z,97377.68
2023-01-17T03:50:10.156Z,97370.62
2023-01-17T03:52:37.469Z,97369.67
2023-01-17T03:55:05.560Z,97369.93
2023-01-17T03:57:32.680Z,97365.14
2023-01-17T03:59:59.829Z,97362.21
2023-01-17T04:02:27.009Z,97356.42
2023-01-17T04:04:54.213Z,97354.21
2023-01-17T04:07:22.079Z,97353.71
2023-01-17T04:09:49.147Z,97346.92
2023-01-17T04:12:16.346Z,97341.18
2023-01-17T04:14:43.500Z,97338.41
2023-01-17T04:17:12.669Z,97341.36
2023-01-17T04:19:41.187Z,97341.91
2023-01-17T04:22:08.742Z,97346.92
2023-01-17T04:24:36.918Z,97348.17
2023-01-17T04:27:05.152Z,97346.89
2023-01-17T04:29:32.632Z,97340.41
2023-01-17T04:31:59.827Z,97335.04
2023-01-17T04:34:27.319Z,97338.54
2023-01-17T04:36:54.487Z,97334.65
2023-01-17T04:39:21.662Z,97330.17
2023-01-17T04:41:48.917Z,97328.27
2023-01-17T04:44:16.090Z,97323.61
2023-01-17T04:46:43.294Z,97328.45
2023-01-17T04:49:10.502Z,97319.30
2023-01-17T04:51:37.682Z,97319.13
2023-01-17T04:54:04.876Z,97315.40
2023-01-17T04:56:32.150Z,97311.98
2023-01-17T04:58:59.406Z,97313.23
2023-01-17T05:01:27.169Z,97312.73
2023-01-17T05:03:54.323Z,97315.64
2023-01-17T05:06:21.530Z,97315.85
2023-01-17T05:08:48.752Z,97313.05
2023-01-17T05:11:15.873Z,97312.23
2023-01-17T05:13:43.253Z,97312.42
2023-01-17T05:16:10.480Z,97315.01
2023-01-17T05:18:37.839Z,97315.86
2023-01-17T05:21:05.247Z,97314.97
2023-01-17T05:23:33.085Z,97316.41
2023-01-17T05:26:00.338Z,97316.21
2023-01-17T05:28:27.540Z,97322.31
2023-01-17T05:30:54.672Z,97323.02
2023-01-17T05:33:21.820Z,97321.56
2023-01-17T05:35:48.992Z,97319.60
2023-01-17T05:38:16.169Z,97317.89
2023-01-17T05:40:43.293Z,97317.29
2023-01-17T05:43:10.501Z,97320.73
2023-01-17T05:45:38.493Z,97323.96
2023-01-17T05:48:06.734Z,97323.45
2023-01-17T05:50:36.688Z,97321.67
2023-01-17T05:53:05.175Z,97319.56
2023-01-17T05:55:34.076Z,97322.79
2023-01-17T05:58:02.060Z,97330.85
2023-01-17T06:00:30.404Z,97336.73
2023-01-17T06:02:59.632Z,97333.44
2023-01-17T06:05:28.331Z,97336.48
2023-01-17T06:07:56.597Z,97339.41
2023-01-17T06:10:24.648Z,97344.94
2023-01-17T06:13:01.068Z,97348.48
2023-01-17T06:15:28.182Z,97348.22
2023-01-17T06:17:55.491Z,97348.49
2023-01-17T06:20:22.823Z,97353.92
2023-01-17T06:22:50.250Z,97352.64
2023-01-17T06:25:17.477Z,97357.27
2023-01-17T06:27:44.761Z,97357.21
2023-01-17T06:30:12.273Z,97352.71
2023-01-17T06:32:39.418Z,97354.45
2023-01-17T06:35:07.055Z,97355.80
2023-01-17T06:37:34.259Z,97357.57
2023-01-17T06:40:01.461Z,97358.35
2023-01-17T06:42:28.659Z,97359.95
2023-01-17T06:44:55.756Z,97358.29
2023-01-17T06:47:22.997Z,97358.11
2023-01-17T06:49:50.112Z,97358.92
2023-01-17T06:52:17.255Z,97362.60
2023-01-17T06:54:44.383Z,97364.79
2023-01-17T06:57:11.570Z,97368.14
2023-01-17T06:59:38.659Z,97368.31
2023-01-17T07:02:05.924Z,97369.24
2023-01-17T07:04:34.694Z,97366.56
2023-01-17T07:07:01.830Z,97363.58
2023-01-17T07:09:29.015Z,97366.50
2023-01-17T07:11:59.827Z,97361.43
2023-01-17T07:14:26.994Z,97359.83
2023-01-17T07:16:54.729Z,97357.98
2023-01-17T07:19:22.074Z,97361.33
2023-01-17T07:21:54.318Z,97364.22
2023-01-17T07:24:22.121Z,97361.90
2023-01-17T07:26:52.589Z,97363.85
2023-01-17T07:29:19.723Z,97364.48
2023-01-17T07:31:49.190Z,97364.48
2023-01-17T07:34:16.561Z,97363.58
2023-01-17T07:36:43.659Z,97366.20
2023-01-17T07:39:10.945Z,97368.17
2023-01-17T07:41:41.476Z,97363.66
2023-01-17T07:44:11.000Z,97365.56
2023-01-17T07:46:38.188Z,97366.56
2023-01-17T07:49:05.378Z,97369.88
2023-01-17T07:51:33.480Z,97369.89
2023-01-17T07:54:00.702Z,97375.98
2023-01-17T07:56:27.877Z,97380.61
2023-01-17T07:58:55.055Z,97384.96
2023-01-17T08:01:22.321Z,97388.23
2023-01-17T08:03:53.468Z,97385.80
2023-01-17T08:06:23.910Z,97381.11
2023-01-17T08:08:52.310Z,97384.60
2023-01-17T08:11:19.547Z,97379.73
2023-01-17T08:13:46.722Z,97378.90
2023-01-17T08:16:14.247Z,97378.60
2023-01-17T08:18:41.890Z,97378.66
2023-01-17T08:21:16.995Z,97376.05
2023-01-17T08:23:51.148Z,97377.31
2023-01-17T08:26:22.518Z,97380.67
2023-01-17T08:29:00.635Z,97384.83
2023-01-17T08:31:30.320Z,97383.63
2023-01-17T08:33:57.718Z,97393.81
2023-01-17T08:36:25.964Z,97393.88
2023-01-17T08:38:53.816Z,97394.11
2023-01-17T08:41:22.082Z,97396.23
2023-01-17T08:43:49.933Z,97399.55
2023-01-17T08:46:17.745Z,97401.09
2023-01-17T08:48:45.149Z,97403.84
2023-01-17T08:51:12.313Z,97411.02
2023-01-17T08:53:40.792Z,97410.48
2023-01-17T08:56:09.465Z,97418.96
2023-01-17T08:58:36.623Z,97422.25
2023-01-17T09:01:06.219Z,97430.27
2023-01-17T09:03:34.432Z,97430.73
2023-01-17T09:06:07.231Z,97424.89
2023-01-17T09:08:34.663Z,97418.83
2023-01-17T09:11:06.448Z,97421.91
2023-01-17T09:13:33.880Z,97417.48
2023-01-17T09:16:01.978Z,97416.77
2023-01-17T09:18:30.736Z,97419.02
2023-01-17T09:20:59.409Z,97413.69
2023-01-17T09:23:28.651Z,97406.05
2023-01-17T09:26:00.181Z,97401.67
2023-01-17T09:28:27.968Z,97401.80
2023-01-17T09:30:55.491Z,97409.54
2023-01-17T09:33:25.859Z,97403.23
2023-01-17T09:35:52.983Z,97402.71
2023-01-17T09:38:21.854Z,97401.90
2023-01-17T09:40:49.177Z,97400.05
2023-01-17T09:43:25.607Z,97405.34
2023-01-17T09:45:53.090Z,97407.67
2023-01-17T09:48:36.304Z,97409.68
2023-01-17T09:51:12.583Z,97409.94
2023-01-17T09:53:41.844Z,97406.13
2023-01-17T09:56:16.393Z,97407.20
2023-01-17T09:59:05.639Z,97406.63
2023-01-17T10:01:55.764Z,97404.20
2023-01-17T10:04:44.197Z,97403.39
2023-01-17T10:07:42.252Z,97403.52
2023-01-17T10:10:37.484Z,97406.00
2023-01-17T10:13:15.982Z,97404.48
2023-01-17T10:15:52.229Z,97402.33
2023-01-17T10:18:29.495Z,97402.17
2023-01-17T10:20:59.931Z,97402.27
2023-01-17T10:23:56.633Z,97402.35
2023-01-17T10:26:25.074Z,97408.26
2023-01-17T10:28:55.662Z,97413.52
2023-01-17T10:31:24.666Z,97411.96
2023-01-17T10:34:05.199Z,97414.91
2023-01-17T10:36:40.380Z,97418.60
2023-01-17T10:39:23.230Z,97419.67
2023-01-17T10:41:58.584Z,97425.58
2023-01-17T10:45:09.071Z,97426.11
2023-01-17T10:47:39.603Z,97428.50
2023-01-17T10:50:11.744Z,97427.46
2023-01-17T10:53:06.661Z,97421.05
2023-01-17T10:55:40.150Z,97419.27
2023-01-17T10:58:12.513Z,97424.48
2023-01-17T11:00:51.889Z,97427.45
2023-01-17T11:03:21.005Z,97427.58
2023-01-17T11:06:17.893Z,97423.47
2023-01-17T11:08:59.613Z,97419.72
2023-01-17T11:11:32.131Z,97420.47
2023-01-17T11:14:03.332Z,97421.63
2023-01-17T11:16:31.972Z,97417.12
2023-01-17T11:19:16.626Z,97413.66
2023-01-17T11:21:53.894Z,97411.98
2023-01-17T11:24:30.462Z,97415.70
2023-01-17T11:26:58.470Z,97412.18
2023-01-17T11:29:40.531Z,97416.81
2023-01-17T11:32:23.192Z,97418.45
2023-01-17T11:35:07.861Z,97423.09
2023-01-17T11:37:36.586Z,97418.17
2023-01-17T11:40:09.239Z,97416.28
2023-01-17T11:42:37.924Z,97415.59
2023-01-17T11:45:24.953Z,97414.77
2023-01-17T11:48:17.043Z,97416.92
2023-01-17T11:50:46.578Z,97418.09
2023-01-17T11:53:22.567Z,97416.69
2023-01-17T11:56:01.355Z,97412.70
2023-01-17T11:58:29.298Z,97414.85
2023-01-17T12:01:21.379Z,97417.42
2023-01-17T12:03:51.646Z,97420.77
2023-01-17T12:06:26.228Z,97420.04
2023-01-17T12:08:59.031Z,97422.70
2023-01-17T12:11:29.005Z,97418.05
2023-01-17T12:14:06.651Z,97413.13
2023-01-17T12:16:46.558Z,97415.86
2023-01-17T12:19:28.521Z,97416.52
2023-01-17T12:22:16.792Z,97413.24
2023-01-17T12:24:52.861Z,97409.48
2023-01-17T12:27:31.932Z,97409.20
2023-01-17T12:30:33.503Z,97415.87
2023-01-17T12:33:22.144Z,97414.50
2023-01-17T12:35:55.233Z,97424.48
2023-01-17T12:38:40.076Z,97430.59
2023-01-17T12:41:13.804Z,97438.89
2023-01-17T12:43:42.084Z,97441.15
2023-01-17T12:46:21.137Z,97443.23
2023-01-17T12:48:53.179Z,97446.83
2023-01-17T12:51:41.452Z,97453.51
2023-01-17T12:54:24.473Z,97455.03
2023-01-17T12:56:56.682Z,97459.55
2023-01-17T12:59:37.189Z,97462.12
2023-01-17T13:02:18.734Z,97460.58
2023-01-17T13:05:05.575Z,97458.39
2023-01-17T13:07:55.283Z,97459.85
2023-01-17T13:10:44.388Z,97463.03
2023-01-17T13:13:22.278Z,97469.56
2023-01-17T13:15:52.491Z,97473.32
2023-01-17T13:18:25.929Z,97471.60
2023-01-17T13:21:11.664Z,97474.48
2023-01-17T13:23:59.849Z,97475.23
2023-01-17T13:26:40.444Z,97484.02
2023-01-17T13:29:10.491Z,97484.06
2023-01-17T13:32:05.827Z,97487.61
2023-01-17T13:35:00.958Z,97498.45
2023-01-17T13:37:41.186Z,97502.20
2023-01-17T13:40:20.752Z,97503.95
2023-01-17T13:42:59.758Z,97512.11
2023-01-17T13:45:33.029Z,97509.96
2023-01-17T13:48:12.666Z,97513.80
2023-01-17T13:51:08.420Z,97516.33
2023-01-17T13:53:35.842Z,97519.74
2023-01-17T13:56:21.890Z,97518.17
2023-01-17T13:58:50.388Z,97520.15
2023-01-17T14:01:43.141Z,97521.39
2023-01-17T14:04:12.291Z,97524.05
2023-01-17T14:06:51.022Z,97524.63
2023-01-17T14:09:29.277Z,97525.13
2023-01-17T14:12:04.734Z,97524.63
2023-01-17T14:14:41.894Z,97527.40
2023-01-17T14:17:28.259Z,97527.20
2023-01-17T14:19:57.750Z,97537.34
2023-01-17T14:22:28.431Z,97541.29
2023-01-17T14:25:05.607Z,97543.46
2023-01-17T14:27:34.784Z,97546.46
2023-01-17T14:30:04.910Z,97551.11
2023-01-17T14:32:37.805Z,97554.79
2023-01-17T14:35:22.768Z,97557.10
2023-01-17T14:37:53.059Z,97560.05
2023-01-17T14:40:26.498Z,97564.23
2023-01-17T14:43:18.621Z,97566.16
2023-01-17T14:45:46.495Z,97570.01
2023-01-17T14:48:21.716Z,97577.55
2023-01-17T14:50:51.050Z,97581.19
2023-01-17T14:53:21.557Z,97584.11
2023-01-17T14:55:48.761Z,97587.91
2023-01-17T14:58:29.711Z,97594.69
2023-01-17T15:01:00.378Z,97601.71
2023-01-17T15:03:28.879Z,97609.90
2023-01-17T15:06:05.036Z,97614.23
2023-01-17T15:08:35.689Z,97619.83
2023-01-17T15:11:05.841Z,97623.80
2023-01-17T15:13:44.357Z,97632.41
2023-01-17T15:16:23.630Z,97628.58
2023-01-17T15:18:52.411Z,97632.58
2023-01-17T15:21:22.194Z,97634.58
2023-01-17T15:24:02.859Z,97638.48
2023-01-17T15:26:34.750Z,97637.93
2023-01-17T15:29:15.871Z,97638.89
2023-01-17T15:31:46.840Z,97642.80
2023-01-17T15:34:23.152Z,97640.59
2023-01-17T15:36:50.688Z,97643.79
2023-01-17T15:39:24.523Z,97647.15
2023-01-17T15:41:54.581Z,97645.98
2023-01-17T15:44:50.458Z,97644.69
2023-01-17T15:47:43.938Z,97646.81
2023-01-17T15:50:20.920Z,97649.36
2023-01-17T15:52:49.856Z,97657.75
2023-01-17T15:55:37.668Z,97663.30
2023-01-17T15:58:21.391Z,97667.85
2023-01-17T16:00:49.108Z,97672.06
2023-01-17T16:03:19.690Z,97674.98
2023-01-17T16:05:47.643Z,97676.73
2023-01-17T16:08:28.084Z,97680.59
2023-01-17T16:10:59.298Z,97680.62
2023-01-17T16:13:26.450Z,97685.82
2023-01-17T16:15:53.622Z,97689.23
2023-01-17T16:18:25.985Z,97692.31
2023-01-17T16:21:17.086Z,97688.74
2023-01-17T16:23:44.938Z,97698.94
2023-01-17T16:26:12.157Z,97702.69
2023-01-17T16:28:39.516Z,97701.45
2023-01-17T16:31:06.816Z,97703.92
2023-01-17T16:33:34.913Z,97706.98
2023-01-17T16:36:02.088Z,97710.40
2023-01-17T16:38:29.345Z,97713.24
2023-01-17T16:40:56.599Z,97716.60
2023-01-17T16:43:23.824Z,97718.97
2023-01-17T16:45:54.136Z,97723.77
2023-01-17T16:48:22.172Z,97722.98
2023-01-17T16:50:52.356Z,97726.48
2023-01-17T16:53:28.312Z,97726.01
2023-01-17T16:55:58.825Z,97725.98
2023-01-17T16:58:26.029Z,97732.20
2023-01-17T17:00:55.423Z,97732.55
2023-01-17T17:03:22.981Z,97739.69
2023-01-17T17:06:01.003Z,97741.21
2023-01-17T17:08:31.704Z,97739.84
2023-01-17T17:11:17.628Z,97743.35
2023-01-17T17:13:46.229Z,97738.82
2023-01-17T17:16:19.497Z,97735.70
2023-01-17T17:18:54.264Z,97734.86
2023-01-17T17:21:21.975Z,97734.79
2023-01-17T17:23:56.757Z,97738.30
2023-01-17T17:26:31.258Z,97734.75
2023-01-17T17:28:58.763Z,97737.83
2023-01-17T17:31:26.779Z,97734.50
2023-01-17T17:33:59.738Z,97730.30
2023-01-17T17:36:28.488Z,97727.70
2023-01-17T17:38:56.833Z,97727.91
2023-01-17T17:41:28.900Z,97730.20
2023-01-17T17:43:56.175Z,97727.76
2023-01-17T17:46:25.205Z,97728.25
2023-01-17T17:48:52.502Z,97730.17
2023-01-17T17:51:25.876Z,97733.37
2023-01-17T17:53:54.722Z,97735.67
2023-01-17T17:56:23.501Z,97737.65
2023-01-17T17:58:50.829Z,97740.83
2023-01-17T18:01:18.282Z,97740.83
2023-01-17T18:03:45.492Z,97746.59
2023-01-17T18:06:13.303Z,97749.30
2023-01-17T18:08:40.479Z,97750.27
2023-01-17T18:11:15.059Z,97751.55
2023-01-17T18:13:42.972Z,97751.96
2023-01-17T18:16:14.461Z,97753.48
2023-01-17T18:18:45.857Z,97755.73
2023-01-17T18:21:39.803Z,97757.06
2023-01-17T18:24:10.417Z,97754.81
2023-01-17T18:26:42.226Z,97761.23
2023-01-17T18:29:12.649Z,97766.13
2023-01-17T18:31:39.906Z,97772.69
2023-01-17T18:34:10.456Z,97771.85
2023-01-17T18:36:38.376Z,97773.84
2023-01-17T18:39:21.099Z,97768.38
2023-01-17T18:41:49.186Z,97779.59
2023-01-17T18:44:17.032Z,97777.79
2023-01-17T18:46:44.279Z,97785.75
2023-01-17T18:49:12.416Z,97788.95
2023-01-17T18:51:39.748Z,97792.39
2023-01-17T18:54:09.018Z,97799.73
2023-01-17T18:56:36.334Z,97806.40
2023-01-17T18:59:05.979Z,97813.87
2023-01-17T19:01:35.852Z,97809.73
2023-01-17T19:04:05.673Z,97811.38
2023-01-17T19:06:37.590Z,97815.90
2023-01-17T19:09:06.686Z,97816.20
2023-01-17T19:11:34.938Z,97818.70
2023-01-17T19:14:02.930Z,97818.02
2023-01-17T19:16:32.301Z,97820.88
2023-01-17T19:19:03.656Z,97818.46
2023-01-17T19:21:31.378Z,97826.11
2023-01-17T19:23:59.455Z,97827.59
2023-01-17T19:26:27.976Z,97829.38
2023-01-17T19:28:56.854Z,97828.25
2023-01-17T19:31:27.016Z,97832.14
2023-01-17T19:33:57.620Z,97839.17
2023-01-17T19:36:28.000Z,97841.37
2023-01-17T19:39:04.555Z,97847.50
2023-01-17T19:41:34.465Z,97843.64
2023-01-17T19:44:06.190Z,97832.00
2023-01-17T19:46:34.331Z,97835.23
2023-01-17T19:49:02.053Z,97841.40
2023-01-17T19:51:29.285Z,97854.27
2023-01-17T19:53:59.256Z,97858.02
2023-01-17T19:56:27.414Z,97865.11
2023-01-17T19:58:54.713Z,97868.27
2023-01-17T20:01:25.468Z,97871.22
2023-01-17T20:03:52.864Z,97868.79
2023-01-17T20:06:22.561Z,97880.13
2023-01-17T20:08:49.857Z,97887.17
2023-01-17T20:11:21.920Z,97896.13
2023-01-17T20:13:53.512Z,97901.64
2023-01-17T20:16:22.015Z,97909.94
2023-01-17T20:18:49.479Z,97913.98
2023-01-17T20:21:22.324Z,97921.93
2023-01-17T20:23:50.997Z,97930.38
2023-01-17T20:26:25.215Z,97931.63
2023-01-17T20:28:53.498Z,97934.44
2023-01-17T20:31:23.546Z,97943.27
2023-01-17T20:33:53.141Z,97944.58
2023-01-17T20:36:23.282Z,97945.13
2023-01-17T20:38:51.025Z,97955.05
2023-01-17T20:41:23.625Z,97959.19
2023-01-17T20:43:56.403Z,97967.93
2023-01-17T20:46:26.286Z,97974.62
2023-01-17T20:48:56.804Z,97983.39
2023-01-17T20:51:28.917Z,97982.23
2023-01-17T20:53:58.575Z,97981.61
2023-01-17T20:56:26.804Z,97976.15
2023-01-17T20:58:54.688Z,97973.17
2023-01-17T21:01:22.942Z,97975.02
2023-01-17T21:03:53.233Z,97976.42
2023-01-17T21:06:22.333Z,97975.29
2023-01-17T21:08:49.882Z,97969.34
2023-01-17T21:11:23.096Z,97964.96
2023-01-17T21:13:51.611Z,97970.61
2023-01-17T21:16:23.086Z,97973.64
2023-01-17T21:18:51.710Z,97977.45
2023-01-17T21:21:24.254Z,97978.71
2023-01-17T21:23:53.939Z,97974.63
2023-01-17T21:26:22.677Z,97974.34
2023-01-17T21:28:50.921Z,97975.68
2023-01-17T21:31:25.025Z,97981.45
2023-01-17T21:34:02.729Z,97978.98
2023-01-17T21:36:35.347Z,97976.85
2023-01-17T21:39:07.675Z,97982.33
2023-01-17T21:41:37.410Z,97987.98
2023-01-17T21:44:08.765Z,97985.11
2023-01-17T21:46:41.051Z,97988.88
2023-01-17T21:49:13.252Z,97986.44
2023-01-17T21:51:54.379Z,97986.84
2023-01-17T21:54:45.281Z,97984.97
2023-01-17T21:57:34.120Z,97983.86
2023-01-17T22:00:01.336Z,97986.83
2023-01-17T22:02:28.619Z,97995.45
2023-01-17T22:04:56.414Z,97998.14
2023-01-17T22:07:24.929Z,98002.33
2023-01-17T22:09:52.026Z,98011.14
2023-01-17T22:12:19.489Z,98010.97
2023-01-17T22:14:46.683Z,98013.80
2023-01-17T22:17:13.803Z,98019.09
2023-01-17T22:19:40.910Z,98024.85
2023-01-17T22:22:08.138Z,98022.04
2023-01-17T22:24:35.342Z,98025.16
2023-01-17T22:27:02.364Z,98021.92
2023-01-17T22:29:29.749Z,98022.52
2023-01-17T22:31:56.945Z,98022.11
2023-01-17T22:34:24.147Z,98018.81
2023-01-17T22:36:51.253Z,98021.02
2023-01-17T22:39:18.366Z,98017.48
2023-01-17T22:41:45.569Z,98013.45
2023-01-17T22:44:13.022Z,98005.73
2023-01-17T22:46:41.550Z,98010.54
2023-01-17T22:49:13.440Z,98013.63
2023-01-17T22:51:40.601Z,98008.52
2023-01-17T22:54:07.953Z,98014.48
2023-01-17T22:56:35.079Z,98018.38
2023-01-17T22:59:02.488Z,98025.07
2023-01-17T23:01:32.747Z,98021.73
2023-01-17T23:04:03.087Z,98019.09
2023-01-17T23:06:33.261Z,98014.60
2023-01-17T23:09:03.788Z,98010.64
2023-01-17T23:11:45.059Z,98006.33
2023-01-17T23:14:15.814Z,98001.14
2023-01-17T23:17:03.618Z,98000.23
2023-01-17T23:19:52.139Z,98007.23
2023-01-17T23:22:29.117Z,98014.65
2023-01-17T23:25:00.319Z,98011.73
2023-01-17T23:27:54.953Z,98015.90
2023-01-17T23:30:25.178Z,98017.43
2023-01-17T23:32:58.659Z,98022.75
2023-01-17T23:35:28.269Z,98023.27
2023-01-17T23:38:14.519Z,98025.75
2023-01-17T23:40:42.560Z,98029.27
2023-01-17T23:43:24.878Z,98036.09
2023-01-17T23:45:53.509Z,98037.52
2023-01-17T23:48:24.055Z,98037.70
2023-01-17T23:50:51.488Z,98041.80
2023-01-17T23:53:23.439Z,98043.59
2023-01-17T23:55:53.397Z,98043.46
2023-01-17T23:58:23.668Z,98041.05
